Time;durP1;ratioP1;P1;durP2;ratioP2;P2;SDS_P1;SDS_P2;PMS_P1;PMS_P2;Temp;Humidity;BMP_temperature;BMP_pressure;BME280_temperature;BME280_humidity;BME280_pressure;Samples;Min_cycle;Max_cycle;Signal;HPM_P1;HPM_P2
2022/04/30 00:00:01;;;;;;;48.30;20.03;;;12.50;20.00;;;;;;5074905;28;20488;-63
2022/04/30 00:02:28;;;;;;;50.20;23.37;;;12.40;20.00;;;;;;5075273;28;21209;-63
2022/04/30 00:04:55;;;;;;;51.23;20.90;;;12.30;20.10;;;;;;5077311;28;20452;-64
2022/04/30 00:07:22;;;;;;;50.80;21.60;;;12.20;20.10;;;;;;5078988;28;21041;-63
2022/04/30 00:09:49;;;;;;;51.93;19.87;;;12.10;20.40;;;;;;5073307;28;21044;-62
2022/04/30 00:12:18;;;;;;;44.83;20.00;;;12.20;20.50;;;;;;5078896;28;20467;-63
2022/04/30 00:14:46;;;;;;;48.77;22.90;;;12.20;20.70;;;;;;5075186;28;20488;-63
2022/04/30 00:17:13;;;;;;;47.83;21.70;;;12.20;20.80;;;;;;5074718;28;20461;-63
2022/04/30 00:19:40;;;;;;;45.77;19.13;;;12.10;21.00;;;;;;5070913;28;20496;-63
2022/04/30 00:22:07;;;;;;;44.97;18.37;;;12.10;20.90;;;;;;5083424;28;20456;-64
2022/04/30 00:24:35;;;;;;;47.10;18.50;;;12.10;20.60;;;;;;5070603;28;20463;-63
2022/04/30 00:27:02;;;;;;;44.40;19.00;;;12.10;20.90;;;;;;5074772;28;21026;-64
2022/04/30 00:29:30;;;;;;;45.50;18.37;;;12.00;21.30;;;;;;5078769;28;20484;-63
2022/04/30 00:31:58;;;;;;;44.10;18.40;;;11.90;21.60;;;;;;5080897;28;21228;-64
2022/04/30 00:34:25;;;;;;;43.73;16.67;;;11.80;21.70;;;;;;5076857;28;20837;-62
2022/04/30 00:36:52;;;;;;;42.60;17.20;;;11.80;22.20;;;;;;5081920;28;20476;-64
2022/04/30 00:39:19;;;;;;;45.70;17.73;;;11.80;22.60;;;;;;5077388;28;20997;-62
2022/04/30 00:41:47;;;;;;;44.40;17.90;;;11.80;23.00;;;;;;5074962;28;20457;-62
2022/04/30 00:44:18;;;;;;;44.10;18.43;;;11.70;22.50;;;;;;5074710;28;20463;-63
2022/04/30 00:46:47;;;;;;;43.80;18.00;;;11.70;22.30;;;;;;5082616;28;20508;-63
2022/04/30 00:49:14;;;;;;;44.53;19.43;;;11.70;22.50;;;;;;5076203;28;20480;-62
2022/04/30 00:51:43;;;;;;;44.10;18.50;;;11.70;22.60;;;;;;5075091;28;20464;-63
2022/04/30 00:54:12;;;;;;;46.33;18.90;;;11.60;23.00;;;;;;5076802;28;21165;-63
2022/04/30 00:56:44;;;;;;;47.40;18.30;;;11.70;23.00;;;;;;5075795;28;20468;-63
2022/04/30 00:59:17;;;;;;;43.93;18.43;;;11.60;22.70;;;;;;5078030;28;20487;-65
2022/04/30 01:01:45;;;;;;;48.30;19.00;;;11.60;22.90;;;;;;5077217;28;20567;-63
2022/04/30 01:04:13;;;;;;;45.63;18.83;;;11.60;23.00;;;;;;5081214;28;20968;-63
2022/04/30 01:06:51;;;;;;;48.07;19.00;;;11.60;23.00;;;;;;5077582;28;20468;-63
2022/04/30 01:09:20;;;;;;;46.60;20.40;;;11.70;23.00;;;;;;5076623;28;20848;-63
2022/04/30 01:11:49;;;;;;;49.80;20.20;;;11.60;22.70;;;;;;5075473;28;20456;-63
2022/04/30 01:14:17;;;;;;;48.40;20.33;;;11.60;22.80;;;;;;5079895;28;20515;-63
2022/04/30 01:16:44;;;;;;;51.67;21.70;;;11.70;22.90;;;;;;5072966;28;21022;-63
2022/04/30 01:19:19;;;;;;;46.30;18.60;;;11.70;23.00;;;;;;5075898;28;20483;-61
2022/04/30 01:21:50;;;;;;;43.03;18.07;;;11.70;23.20;;;;;;5072586;28;20456;-63
2022/04/30 01:24:21;;;;;;;46.97;19.33;;;11.70;23.10;;;;;;5072107;28;20488;-62
2022/04/30 01:26:49;;;;;;;46.63;19.47;;;11.70;23.10;;;;;;5080085;28;20838;-63
2022/04/30 01:29:18;;;;;;;44.30;20.00;;;11.70;22.90;;;;;;5077472;28;20476;-63
2022/04/30 01:37:25;;;;;;;46.10;18.17;;;11.60;23.20;;;;;;5076077;28;20474;-61
2022/04/30 01:39:57;;;;;;;45.40;17.80;;;11.60;23.30;;;;;;5074613;28;20477;-63
2022/04/30 01:42:25;;;;;;;49.13;19.97;;;11.60;23.40;;;;;;5071318;28;20461;-63
2022/04/30 01:44:53;;;;;;;45.90;18.00;;;11.60;23.30;;;;;;5077259;28;20558;-64
2022/04/30 01:47:21;;;;;;;43.53;17.83;;;11.60;23.60;;;;;;5078835;28;20899;-63
2022/04/30 01:49:47;;;;;;;44.90;18.10;;;11.60;23.60;;;;;;5075053;28;20476;-62
2022/04/30 01:52:15;;;;;;;44.43;17.27;;;11.60;23.50;;;;;;5081188;28;20476;-62
2022/04/30 01:54:42;;;;;;;46.80;17.87;;;11.60;23.80;;;;;;5082149;28;20997;-63
2022/04/30 01:57:10;;;;;;;46.90;16.83;;;11.60;23.70;;;;;;5078506;28;20465;-62
2022/04/30 01:59:38;;;;;;;44.17;16.37;;;11.60;23.80;;;;;;5073155;28;20503;-63
2022/04/30 02:02:06;;;;;;;44.90;15.90;;;11.60;23.60;;;;;;5076664;28;20512;-63
2022/04/30 02:04:34;;;;;;;46.17;16.90;;;11.60;23.60;;;;;;5076076;28;20491;-62
2022/04/30 02:07:02;;;;;;;44.07;16.30;;;11.50;23.60;;;;;;5072727;28;20460;-62
2022/04/30 02:09:31;;;;;;;42.30;16.13;;;11.50;23.70;;;;;;5073033;28;20477;-63
2022/04/30 02:11:59;;;;;;;40.33;16.40;;;11.50;23.90;;;;;;5074272;28;20557;-63
2022/04/30 02:14:30;;;;;;;44.63;16.73;;;11.50;23.80;;;;;;5078748;28;20537;-64
2022/04/30 02:16:57;;;;;;;43.13;16.23;;;11.50;23.70;;;;;;5080029;28;20461;-64
2022/04/30 02:19:28;;;;;;;45.00;16.60;;;11.50;23.80;;;;;;5078463;28;20877;-63
2022/04/30 02:21:58;;;;;;;46.37;18.60;;;11.50;24.20;;;;;;5077462;28;20480;-63
2022/04/30 02:24:26;;;;;;;42.47;17.13;;;11.40;24.30;;;;;;5077158;28;20470;-63
2022/04/30 02:26:53;;;;;;;41.80;16.63;;;11.40;24.70;;;;;;5074614;28;20548;-63
2022/04/30 02:29:20;;;;;;;43.77;17.83;;;11.40;25.00;;;;;;5074332;28;20484;-63
2022/04/30 02:31:48;;;;;;;47.10;16.60;;;11.40;24.90;;;;;;5076236;28;20480;-62
2022/04/30 02:34:16;;;;;;;42.93;17.10;;;11.30;24.80;;;;;;5073735;28;20465;-63
2022/04/30 02:36:42;;;;;;;45.87;17.17;;;11.30;25.00;;;;;;5073268;28;20468;-62
2022/04/30 02:39:09;;;;;;;44.20;17.90;;;11.30;25.20;;;;;;5071520;28;20488;-62
2022/04/30 02:41:36;;;;;;;43.90;18.70;;;11.30;25.30;;;;;;5072180;28;20842;-63
2022/04/30 02:44:04;;;;;;;43.60;17.30;;;11.30;25.10;;;;;;5079096;28;20463;-63
2022/04/30 02:46:31;;;;;;;46.10;16.43;;;11.30;24.90;;;;;;5075254;28;20486;-63
2022/04/30 02:48:59;;;;;;;46.63;18.00;;;11.30;24.90;;;;;;5077593;28;20479;-63
2022/04/30 02:51:26;;;;;;;43.87;17.10;;;11.30;24.70;;;;;;5071964;28;20479;-63
2022/04/30 02:53:54;;;;;;;42.13;16.87;;;11.20;25.50;;;;;;5076321;28;20453;-62
2022/04/30 02:56:21;;;;;;;43.50;18.67;;;11.20;24.60;;;;;;5073642;28;20481;-63
2022/04/30 03:01:33;;;;;;;44.20;17.73;;;11.30;24.80;;;;;;5068850;28;20605;-63
2022/04/30 03:04:02;;;;;;;44.43;17.93;;;11.20;25.10;;;;;;5081332;28;20953;-62
2022/04/30 03:06:31;;;;;;;44.83;19.03;;;11.30;25.20;;;;;;5073702;28;20461;-63
2022/04/30 03:08:58;;;;;;;43.70;18.00;;;11.20;26.00;;;;;;5076917;28;20495;-63
2022/04/30 03:11:25;;;;;;;41.90;16.93;;;11.20;25.70;;;;;;5072346;28;20481;-63
2022/04/30 03:13:52;;;;;;;44.03;17.77;;;11.20;25.60;;;;;;5079588;28;20463;-63
2022/04/30 03:21:52;;;;;;;46.37;19.13;;;11.20;25.20;;;;;;5075773;28;20533;-63
2022/04/30 03:24:19;;;;;;;47.83;18.60;;;11.20;25.10;;;;;;5073273;28;20457;-63
2022/04/30 03:26:48;;;;;;;47.30;18.60;;;11.20;25.00;;;;;;5070565;28;20456;-62
2022/04/30 03:29:15;;;;;;;45.47;19.30;;;11.20;25.60;;;;;;5076893;28;20480;-63
2022/04/30 03:31:43;;;;;;;45.80;19.10;;;11.20;25.50;;;;;;5073039;28;20766;-63
2022/04/30 03:34:12;;;;;;;42.97;18.10;;;11.20;25.30;;;;;;5076443;28;20984;-62
2022/04/30 03:36:40;;;;;;;42.80;17.43;;;11.20;25.20;;;;;;5072381;28;20483;-62
2022/04/30 03:39:07;;;;;;;45.70;18.57;;;11.30;25.80;;;;;;5073340;28;20476;-62
2022/04/30 03:41:34;;;;;;;43.97;19.50;;;11.30;26.50;;;;;;5073627;28;20467;-63
2022/04/30 03:44:02;;;;;;;42.90;17.80;;;11.30;27.70;;;;;;5073854;28;20823;-62
2022/04/30 03:46:29;;;;;;;43.00;18.40;;;11.30;28.30;;;;;;5082080;28;20457;-63
2022/04/30 03:48:56;;;;;;;44.83;17.83;;;11.20;28.10;;;;;;5075613;28;20485;-63
2022/04/30 03:51:24;;;;;;;43.00;17.53;;;11.20;27.70;;;;;;5078512;28;20547;-62
2022/04/30 03:53:52;;;;;;;44.07;17.17;;;11.30;27.90;;;;;;5074328;28;20479;-63
2022/04/30 03:56:21;;;;;;;43.73;18.80;;;11.20;28.40;;;;;;5074206;28;20484;-61
2022/04/30 03:58:48;;;;;;;44.60;18.90;;;11.30;28.90;;;;;;5074723;28;20484;-63
2022/04/30 04:01:18;;;;;;;41.17;17.50;;;11.30;28.90;;;;;;5069189;28;20492;-62
2022/04/30 04:03:45;;;;;;;44.07;19.47;;;11.20;29.00;;;;;;5078349;28;20465;-63
2022/04/30 04:06:13;;;;;;;47.03;19.30;;;11.20;29.70;;;;;;5080572;28;20453;-62
2022/04/30 04:08:41;;;;;;;45.47;20.83;;;11.20;29.30;;;;;;5074397;28;20482;-63
2022/04/30 04:11:11;;;;;;;44.00;19.27;;;11.20;30.20;;;;;;5075210;28;20960;-63
2022/04/30 04:19:06;;;;;;;45.90;19.47;;;11.20;29.90;;;;;;5070130;28;20519;-63
2022/04/30 04:21:33;;;;;;;44.50;19.43;;;11.10;29.80;;;;;;5078241;28;20473;-62
2022/04/30 04:26:45;;;;;;;45.47;20.03;;;11.10;30.10;;;;;;5074498;28;20875;-61
2022/04/30 04:29:15;;;;;;;51.77;20.07;;;11.10;29.90;;;;;;5076062;28;20480;-61
2022/04/30 04:31:42;;;;;;;47.20;19.37;;;11.10;29.70;;;;;;5077095;28;20499;-62
2022/04/30 04:34:09;;;;;;;46.57;21.90;;;11.10;29.30;;;;;;5071656;28;20463;-62
2022/04/30 04:36:36;;;;;;;43.10;18.33;;;11.10;29.00;;;;;;5078925;28;20491;-63
2022/04/30 04:39:09;;;;;;;44.40;18.50;;;11.10;29.30;;;;;;5076576;28;20484;-62
2022/04/30 04:41:36;;;;;;;45.77;19.60;;;11.10;29.10;;;;;;5076031;28;20468;-62
2022/04/30 04:44:03;;;;;;;53.73;20.10;;;11.10;29.30;;;;;;5072214;28;20465;-63
2022/04/30 04:46:30;;;;;;;44.73;20.13;;;11.10;29.30;;;;;;5077936;28;20452;-65
2022/04/30 04:48:57;;;;;;;46.97;20.83;;;11.20;29.20;;;;;;5077483;28;20488;-63
2022/04/30 04:51:24;;;;;;;44.33;19.43;;;11.20;30.60;;;;;;5075828;28;20456;-63
2022/04/30 04:53:50;;;;;;;47.83;19.03;;;11.30;31.30;;;;;;5078489;28;20460;-62
2022/04/30 04:56:19;;;;;;;44.27;19.50;;;11.30;31.20;;;;;;5076468;28;20483;-62
2022/04/30 04:58:45;;;;;;;44.67;19.77;;;11.20;30.90;;;;;;5075803;28;20480;-62
2022/04/30 05:01:12;;;;;;;46.93;19.57;;;11.20;30.70;;;;;;5075577;28;21024;-61
2022/04/30 05:03:39;;;;;;;46.43;20.03;;;11.20;31.30;;;;;;5077080;28;20461;-63
2022/04/30 05:06:06;;;;;;;44.87;19.07;;;11.20;30.80;;;;;;5075185;28;20500;-62
2022/04/30 05:08:32;;;;;;;46.43;21.07;;;11.20;30.80;;;;;;5072041;28;21205;-63
2022/04/30 05:10:59;;;;;;;49.23;19.47;;;11.20;30.60;;;;;;5077492;28;20461;-63
2022/04/30 05:13:27;;;;;;;46.47;20.00;;;11.20;30.40;;;;;;5077120;28;20472;-63
2022/04/30 05:15:54;;;;;;;48.37;21.30;;;11.30;30.60;;;;;;5071892;28;21028;-62
2022/04/30 05:18:21;;;;;;;44.53;19.87;;;11.30;30.90;;;;;;5080701;28;20483;-63
2022/04/30 05:20:48;;;;;;;46.83;19.23;;;11.40;31.30;;;;;;5076783;28;20509;-63
2022/04/30 05:23:15;;;;;;;47.23;19.83;;;11.40;30.80;;;;;;5074465;28;20770;-63
2022/04/30 05:25:41;;;;;;;46.70;19.60;;;11.30;31.00;;;;;;5077336;28;20467;-62
2022/04/30 05:28:08;;;;;;;44.00;18.97;;;11.30;30.90;;;;;;5078524;28;20961;-62
2022/04/30 05:30:36;;;;;;;43.10;17.90;;;11.20;30.80;;;;;;5075709;28;20487;-62
2022/04/30 05:33:03;;;;;;;43.77;17.60;;;11.20;30.60;;;;;;5077319;28;21011;-62
2022/04/30 05:35:30;;;;;;;46.50;19.73;;;11.20;30.60;;;;;;5077761;28;20492;-62
2022/04/30 05:37:57;;;;;;;45.20;18.93;;;11.30;30.80;;;;;;5081993;28;20461;-63
2022/04/30 05:40:24;;;;;;;43.33;18.90;;;11.30;30.80;;;;;;5075338;28;20464;-63
2022/04/30 05:42:50;;;;;;;45.40;19.80;;;11.30;30.90;;;;;;5082957;28;20460;-63
2022/04/30 05:45:17;;;;;;;46.73;19.40;;;11.40;31.00;;;;;;5080669;28;20461;-61
2022/04/30 05:47:45;;;;;;;46.37;18.63;;;11.40;31.00;;;;;;5075366;28;20460;-63
2022/04/30 05:50:12;;;;;;;46.07;21.00;;;11.40;31.10;;;;;;5072550;28;20487;-61
2022/04/30 05:52:39;;;;;;;46.33;20.63;;;11.50;30.90;;;;;;5077618;28;20952;-63
2022/04/30 05:55:07;;;;;;;44.30;20.40;;;11.60;30.80;;;;;;5080671;28;20471;-63
2022/04/30 05:57:34;;;;;;;45.80;21.83;;;11.60;30.70;;;;;;5073867;28;20468;-63
2022/04/30 06:00:01;;;;;;;44.87;20.00;;;11.70;30.70;;;;;;5079965;28;20491;-63
2022/04/30 06:02:28;;;;;;;46.20;20.07;;;11.70;30.90;;;;;;5076139;28;20503;-61
2022/04/30 06:04:56;;;;;;;44.73;19.90;;;11.80;30.90;;;;;;5081524;28;20499;-63
2022/04/30 06:07:23;;;;;;;44.27;20.17;;;11.90;31.30;;;;;;5072292;28;20456;-62
2022/04/30 06:09:49;;;;;;;46.17;19.73;;;12.00;30.50;;;;;;5073969;28;20489;-63
2022/04/30 06:12:16;;;;;;;43.97;17.97;;;12.10;30.50;;;;;;5077230;28;20470;-62
2022/04/30 06:14:43;;;;;;;47.63;19.03;;;12.20;30.40;;;;;;5080122;28;20460;-62
2022/04/30 06:17:10;;;;;;;44.00;18.33;;;12.40;30.30;;;;;;5072033;28;20488;-63
2022/04/30 06:19:37;;;;;;;43.30;18.03;;;12.50;30.00;;;;;;5079676;28;20538;-63
2022/04/30 06:22:05;;;;;;;46.67;17.83;;;12.70;30.20;;;;;;5082269;28;20468;-63
2022/04/30 06:24:32;;;;;;;47.23;19.50;;;12.90;29.80;;;;;;5079290;28;20469;-63
2022/04/30 06:26:59;;;;;;;43.80;19.33;;;13.10;29.10;;;;;;5078252;28;20453;-63
2022/04/30 06:29:26;;;;;;;43.50;18.20;;;13.30;29.20;;;;;;5078928;28;20487;-62
2022/04/30 06:31:52;;;;;;;44.47;18.40;;;13.50;28.60;;;;;;5076612;28;20468;-63
2022/04/30 06:34:19;;;;;;;43.37;18.77;;;13.60;28.00;;;;;;5075513;28;20490;-62
2022/04/30 06:36:46;;;;;;;43.77;16.97;;;13.70;27.50;;;;;;5076448;28;20491;-63
2022/04/30 06:39:14;;;;;;;43.30;18.40;;;13.80;26.90;;;;;;5072149;28;21209;-60
2022/04/30 06:41:41;;;;;;;42.27;16.90;;;13.80;26.50;;;;;;5078109;28;20460;-64
2022/04/30 06:44:08;;;;;;;42.63;19.33;;;13.90;26.50;;;;;;5076164;28;20461;-63
2022/04/30 06:46:35;;;;;;;42.40;18.80;;;13.90;26.40;;;;;;5081893;28;20464;-62
2022/04/30 06:49:01;;;;;;;41.67;18.30;;;14.00;26.30;;;;;;5078021;28;20484;-62
2022/04/30 06:51:28;;;;;;;41.27;16.93;;;13.90;26.30;;;;;;5073374;28;20468;-64
2022/04/30 06:59:28;;;;;;;43.10;18.60;;;13.90;26.30;;;;;;5074258;28;20514;-62
2022/04/30 07:02:00;;;;;;;42.63;18.70;;;13.90;26.30;;;;;;5075253;28;20500;-63
2022/04/30 07:04:27;;;;;;;44.97;19.30;;;13.90;26.30;;;;;;5074761;28;20542;-63
2022/04/30 07:06:53;;;;;;;42.17;20.00;;;13.90;26.50;;;;;;5078229;28;20456;-62
2022/04/30 07:09:20;;;;;;;48.97;20.30;;;13.80;26.60;;;;;;5078204;28;20480;-63
2022/04/30 07:11:48;;;;;;;44.77;19.13;;;13.80;26.80;;;;;;5078795;28;20457;-64
2022/04/30 07:14:15;;;;;;;48.90;21.23;;;13.90;26.90;;;;;;5080667;28;20460;-63
2022/04/30 07:16:42;;;;;;;44.57;20.13;;;13.90;27.10;;;;;;5074674;28;20480;-63
2022/04/30 07:19:09;;;;;;;45.40;20.63;;;13.90;27.40;;;;;;5075916;28;20503;-63
2022/04/30 07:21:36;;;;;;;46.87;21.87;;;14.00;27.50;;;;;;5079079;28;20480;-63
2022/04/30 07:24:03;;;;;;;46.97;20.90;;;14.00;27.50;;;;;;5078809;28;20467;-63
2022/04/30 07:26:30;;;;;;;44.90;21.20;;;14.10;27.60;;;;;;5074737;28;20544;-63
2022/04/30 07:28:58;;;;;;;50.13;21.70;;;14.10;27.60;;;;;;5075536;28;20492;-64
2022/04/30 07:31:25;;;;;;;46.77;22.40;;;14.20;27.60;;;;;;5068552;28;20477;-64
2022/04/30 07:33:51;;;;;;;46.20;21.00;;;14.30;27.70;;;;;;5073883;28;20856;-63
2022/04/30 07:36:18;;;;;;;48.40;22.87;;;14.30;27.90;;;;;;5076766;28;20484;-63
2022/04/30 07:38:45;;;;;;;47.17;22.23;;;14.30;28.00;;;;;;5074508;28;20480;-64
2022/04/30 07:41:12;;;;;;;52.03;24.70;;;14.30;28.30;;;;;;5077106;28;20531;-64
2022/04/30 07:43:39;;;;;;;48.87;23.13;;;14.30;28.40;;;;;;5073117;28;20456;-64
2022/04/30 07:46:07;;;;;;;45.10;21.57;;;14.30;28.50;;;;;;5072907;28;20964;-63
2022/04/30 07:48:34;;;;;;;51.03;22.83;;;14.30;28.60;;;;;;5073445;28;20537;-64
2022/04/30 07:51:01;;;;;;;51.93;25.20;;;14.30;28.60;;;;;;5077821;28;20480;-63
2022/04/30 07:53:28;;;;;;;50.37;23.63;;;14.30;28.80;;;;;;5070627;28;20483;-63
2022/04/30 07:55:55;;;;;;;47.23;23.40;;;14.30;29.00;;;;;;5071375;28;20483;-62
2022/04/30 07:58:22;;;;;;;54.77;26.03;;;14.30;29.20;;;;;;5074304;28;20484;-62
2022/04/30 08:00:48;;;;;;;50.30;25.67;;;14.40;29.30;;;;;;5070852;28;20472;-64
2022/04/30 08:03:17;;;;;;;52.63;24.43;;;14.30;29.20;;;;;;5071198;28;20448;-65
2022/04/30 08:05:43;;;;;;;52.30;26.27;;;14.30;29.10;;;;;;5072804;28;20462;-62
2022/04/30 08:08:10;;;;;;;51.10;24.17;;;14.30;29.30;;;;;;5069866;28;20461;-62
2022/04/30 08:10:37;;;;;;;52.03;26.30;;;14.30;29.30;;;;;;5071189;28;20474;-63
2022/04/30 08:13:04;;;;;;;50.50;24.40;;;14.40;29.00;;;;;;5073133;28;20463;-64
2022/04/30 08:15:32;;;;;;;55.50;26.13;;;14.40;29.00;;;;;;5071338;28;20496;-66
2022/04/30 08:17:59;;;;;;;51.93;25.10;;;14.40;29.20;;;;;;5079110;28;20483;-66
2022/04/30 08:20:27;;;;;;;48.90;25.57;;;14.40;29.70;;;;;;5074289;28;20469;-64
2022/04/30 08:22:54;;;;;;;49.20;24.47;;;14.40;29.70;;;;;;5073587;28;21191;-64
2022/04/30 08:25:21;;;;;;;53.30;26.03;;;14.40;29.90;;;;;;5078288;28;20464;-66
2022/04/30 08:27:48;;;;;;;50.00;24.80;;;14.40;29.90;;;;;;5076370;28;20495;-64
2022/04/30 08:30:15;;;;;;;48.27;23.97;;;14.40;30.00;;;;;;5068177;28;20997;-68
2022/04/30 08:32:42;;;;;;;53.10;24.87;;;14.50;30.10;;;;;;5071428;28;20969;-67
2022/04/30 08:35:09;;;;;;;51.97;25.20;;;14.40;30.50;;;;;;5074511;28;20478;-65
2022/04/30 08:37:37;;;;;;;49.40;25.63;;;14.50;30.40;;;;;;5075388;28;20476;-67
2022/04/30 08:40:04;;;;;;;50.13;25.53;;;14.40;30.40;;;;;;5079426;28;20480;-65
2022/04/30 08:42:31;;;;;;;55.30;26.80;;;14.50;30.40;;;;;;5074366;28;20514;-65
2022/04/30 08:44:58;;;;;;;53.43;27.40;;;14.50;30.50;;;;;;5070002;28;20466;-65
2022/04/30 08:47:25;;;;;;;51.53;26.40;;;14.60;30.40;;;;;;5076405;28;20440;-65
2022/04/30 08:49:53;;;;;;;53.77;27.27;;;14.70;30.30;;;;;;5079145;28;20476;-65
2022/04/30 08:52:20;;;;;;;54.20;25.27;;;14.80;30.00;;;;;;5080111;28;20457;-65
2022/04/30 08:54:48;;;;;;;53.00;27.77;;;14.90;29.70;;;;;;5075951;28;20601;-64
2022/04/30 08:57:15;;;;;;;55.97;29.80;;;15.00;29.60;;;;;;5078237;28;20507;-63
2022/04/30 08:59:42;;;;;;;54.53;26.67;;;15.10;28.80;;;;;;5079851;28;20880;-66
2022/04/30 09:02:11;;;;;;;54.77;28.80;;;15.20;28.80;;;;;;5083263;28;20484;-64
2022/04/30 09:04:43;;;;;;;58.20;27.00;;;15.30;29.00;;;;;;5074999;28;20496;-66
2022/04/30 09:07:14;;;;;;;55.57;27.80;;;15.40;28.60;;;;;;5080665;28;20474;-66
2022/04/30 09:09:41;;;;;;;55.00;26.07;;;15.40;28.30;;;;;;5079500;28;20502;-64
2022/04/30 09:12:10;;;;;;;55.80;27.70;;;15.60;28.00;;;;;;5076585;28;20467;-65
2022/04/30 09:14:40;;;;;;;52.80;27.00;;;15.80;27.90;;;;;;5077013;28;20985;-65
2022/04/30 09:17:09;;;;;;;49.30;24.67;;;16.00;27.20;;;;;;5082768;28;20476;-64
2022/04/30 09:19:49;;;;;;;55.47;27.53;;;16.10;26.80;;;;;;5076094;28;20487;-62
2022/04/30 09:22:17;;;;;;;49.73;24.33;;;16.20;25.70;;;;;;5077797;28;20456;-65
2022/04/30 09:24:49;;;;;;;51.20;24.07;;;16.20;24.70;;;;;;5081404;28;20470;-66
2022/04/30 09:27:18;;;;;;;50.80;25.43;;;16.20;24.90;;;;;;5079998;28;20513;-69
2022/04/30 09:29:45;;;;;;;49.10;24.60;;;16.20;24.90;;;;;;5080342;28;20846;-67
2022/04/30 09:32:17;;;;;;;49.53;22.57;;;16.20;24.60;;;;;;5080411;28;20487;-67
2022/04/30 09:37:42;;;;;;;50.87;24.87;;;16.20;25.10;;;;;;5074879;28;20574;-64
2022/04/30 09:40:23;;;;;;;50.07;24.80;;;16.20;25.30;;;;;;5081087;28;20476;-65
2022/04/30 09:42:51;;;;;;;50.33;24.00;;;16.10;25.30;;;;;;5074521;28;20465;-63
2022/04/30 09:45:26;;;;;;;46.47;23.10;;;16.10;25.20;;;;;;5084312;28;20492;-65
2022/04/30 09:47:54;;;;;;;52.20;25.73;;;16.00;25.40;;;;;;5075514;28;20456;-62
2022/04/30 09:55:54;;;;;;;51.80;25.63;;;15.80;26.20;;;;;;5078298;28;20497;-62
2022/04/30 09:58:24;;;;;;;53.73;27.00;;;15.80;26.20;;;;;;5072075;28;21260;-64
2022/04/30 10:00:55;;;;;;;48.13;23.77;;;15.80;26.20;;;;;;5073399;28;20476;-61
2022/04/30 10:03:27;;;;;;;53.07;26.30;;;15.80;26.40;;;;;;5076626;28;20489;-64
2022/04/30 10:06:00;;;;;;;50.17;23.80;;;15.80;26.50;;;;;;5076877;28;20469;-64
2022/04/30 10:08:28;;;;;;;49.63;26.93;;;15.80;26.60;;;;;;5079601;28;20508;-64
2022/04/30 10:11:07;;;;;;;56.33;26.50;;;15.80;26.70;;;;;;5077328;28;20460;-61
2022/04/30 10:13:41;;;;;;;51.60;26.40;;;15.80;27.00;;;;;;5083197;28;20478;-65
2022/04/30 10:16:13;;;;;;;49.87;24.70;;;15.70;27.20;;;;;;5078722;28;20465;-63
2022/04/30 10:18:43;;;;;;;52.37;25.30;;;15.80;27.40;;;;;;5078765;28;20487;-63
2022/04/30 10:21:17;;;;;;;49.77;25.27;;;15.80;27.40;;;;;;5076244;28;20465;-62
2022/04/30 10:23:44;;;;;;;53.17;24.90;;;15.80;27.40;;;;;;5081013;28;20474;-63
2022/04/30 10:26:11;;;;;;;50.70;25.83;;;15.80;27.40;;;;;;5079856;28;20469;-61
2022/04/30 10:28:39;;;;;;;51.10;26.07;;;15.90;27.50;;;;;;5082180;28;21066;-61
2022/04/30 10:31:09;;;;;;;51.13;24.97;;;15.90;27.50;;;;;;5077237;28;21044;-62
2022/04/30 10:33:46;;;;;;;49.90;24.90;;;16.00;27.50;;;;;;5080724;28;20480;-62
2022/04/30 10:36:13;;;;;;;50.57;25.30;;;16.00;27.50;;;;;;5074934;28;20471;-63
2022/04/30 10:38:42;;;;;;;47.37;25.10;;;16.10;27.50;;;;;;5075633;28;20492;-63
2022/04/30 10:41:10;;;;;;;47.63;23.57;;;16.10;27.70;;;;;;5079742;28;20539;-61
2022/04/30 10:43:40;;;;;;;47.17;25.13;;;16.00;27.70;;;;;;5079242;28;20472;-62
2022/04/30 10:46:22;;;;;;;53.23;25.07;;;15.90;27.70;;;;;;5075934;28;20460;-61
2022/04/30 10:48:49;;;;;;;50.83;25.70;;;15.80;27.80;;;;;;5078332;28;20576;-65
2022/04/30 10:51:17;;;;;;;47.70;24.97;;;15.80;27.90;;;;;;5078544;28;20476;-59
2022/04/30 10:53:45;;;;;;;47.33;23.30;;;15.80;27.40;;;;;;5078133;28;20543;-64
2022/04/30 10:56:13;;;;;;;48.53;23.47;;;15.70;27.50;;;;;;5082554;28;20820;-64
2022/04/30 10:58:42;;;;;;;47.60;22.83;;;15.60;26.60;;;;;;5076019;28;20480;-64
2022/04/30 11:01:13;;;;;;;49.30;23.10;;;15.60;27.00;;;;;;5077788;28;20518;-63
2022/04/30 11:03:42;;;;;;;48.30;24.03;;;15.50;27.40;;;;;;5076980;28;20475;-65
2022/04/30 11:06:10;;;;;;;54.43;25.27;;;15.50;27.90;;;;;;5082671;28;20448;-63
2022/04/30 11:08:37;;;;;;;47.47;24.67;;;15.60;28.30;;;;;;5077943;28;20485;-62
2022/04/30 11:11:04;;;;;;;45.70;23.33;;;15.60;28.40;;;;;;5074748;28;20465;-64
2022/04/30 11:13:31;;;;;;;46.23;22.70;;;15.60;26.90;;;;;;5075464;28;20976;-64
2022/04/30 11:16:00;;;;;;;49.13;23.57;;;15.60;27.30;;;;;;5081983;28;20469;-65
2022/04/30 11:18:28;;;;;;;46.50;23.87;;;15.60;27.60;;;;;;5079125;28;20594;-65
2022/04/30 11:20:59;;;;;;;44.97;22.67;;;15.70;27.90;;;;;;5075781;28;20460;-64
2022/04/30 11:23:25;;;;;;;46.10;23.80;;;15.80;27.40;;;;;;5077739;28;20465;-64
2022/04/30 11:25:52;;;;;;;46.97;25.23;;;15.80;27.20;;;;;;5078977;28;20467;-63
2022/04/30 11:28:19;;;;;;;44.40;22.17;;;15.90;27.70;;;;;;5077673;28;20479;-61
2022/04/30 11:30:47;;;;;;;46.70;23.20;;;16.00;27.60;;;;;;5075116;28;20491;-63
2022/04/30 11:33:15;;;;;;;46.30;22.07;;;16.00;27.10;;;;;;5077600;28;20982;-63
2022/04/30 11:35:41;;;;;;;47.23;22.57;;;15.90;27.10;;;;;;5080734;28;20471;-61
2022/04/30 11:38:11;;;;;;;47.33;23.47;;;15.80;26.90;;;;;;5076289;28;20494;-64
2022/04/30 11:40:42;;;;;;;46.50;24.43;;;15.80;27.50;;;;;;5077787;28;21218;-65
2022/04/30 11:43:10;;;;;;;48.53;25.60;;;15.70;28.10;;;;;;5082729;28;20543;-62
2022/04/30 11:45:36;;;;;;;49.27;24.53;;;15.70;28.30;;;;;;5076148;28;22185;-65
2022/04/30 11:48:04;;;;;;;47.07;24.40;;;15.70;28.60;;;;;;5074173;28;20464;-60
2022/04/30 11:50:33;;;;;;;49.03;26.30;;;15.60;28.60;;;;;;5075963;28;20469;-64
2022/04/30 11:53:00;;;;;;;50.73;25.53;;;15.60;28.60;;;;;;5072396;28;20465;-60
2022/04/30 11:55:29;;;;;;;48.50;24.37;;;15.60;28.60;;;;;;5080512;28;20475;-61
2022/04/30 11:58:03;;;;;;;45.77;22.37;;;15.70;28.50;;;;;;5083387;28;21167;-62
2022/04/30 12:00:35;;;;;;;47.20;24.37;;;15.70;28.40;;;;;;5075006;28;20482;-64
2022/04/30 12:03:02;;;;;;;44.20;22.90;;;15.80;28.20;;;;;;5075593;28;20496;-64
2022/04/30 12:05:32;;;;;;;50.20;24.37;;;16.10;27.90;;;;;;5072419;28;20845;-63
2022/04/30 12:08:01;;;;;;;46.27;23.50;;;16.30;27.60;;;;;;5080991;28;20464;-64
2022/04/30 12:10:29;;;;;;;44.97;22.77;;;16.50;27.30;;;;;;5079641;28;21071;-63
2022/04/30 12:12:56;;;;;;;44.93;22.07;;;16.60;26.80;;;;;;5074988;28;20464;-66
2022/04/30 12:15:25;;;;;;;45.40;23.40;;;16.70;26.00;;;;;;5075947;28;20464;-67
2022/04/30 12:26:38;;;;;;;46.37;23.37;;;16.70;24.00;;;;;;5084747;28;20500;-65
2022/04/30 12:29:20;;;;;;;45.40;23.43;;;16.70;23.80;;;;;;5082380;28;20485;-62
2022/04/30 12:31:47;;;;;;;46.47;22.57;;;16.70;24.20;;;;;;5088224;28;20476;-64
2022/04/30 12:34:18;;;;;;;48.13;23.10;;;16.70;24.20;;;;;;5086763;28;20468;-63
2022/04/30 12:36:53;;;;;;;45.07;22.30;;;16.60;24.10;;;;;;5083758;28;20472;-63
2022/04/30 12:39:20;;;;;;;46.73;22.70;;;16.60;24.20;;;;;;5083328;28;20499;-64
2022/04/30 12:41:47;;;;;;;38.00;15.50;;;16.60;24.30;;;;;;5080525;28;20840;-63
2022/04/30 12:44:13;;;;;;;37.00;13.47;;;16.70;24.40;;;;;;5088646;28;20542;-64
2022/04/30 12:46:43;;;;;;;36.40;14.00;;;16.70;23.90;;;;;;5078259;28;20461;-70
2022/04/30 12:49:12;;;;;;;34.07;10.63;;;16.50;23.60;;;;;;5080021;28;20567;-64
2022/04/30 12:51:39;;;;;;;33.10;9.93;;;16.40;23.10;;;;;;5082561;28;20521;-64
2022/04/30 12:54:08;;;;;;;35.83;9.90;;;16.20;22.60;;;;;;5079349;28;20453;-65
2022/04/30 12:56:34;;;;;;;32.23;9.17;;;16.10;22.60;;;;;;5078934;28;20461;-61
2022/04/30 12:59:01;;;;;;;33.50;9.00;;;16.00;22.60;;;;;;5086661;28;20489;-62
2022/04/30 13:01:29;;;;;;;36.17;11.10;;;15.80;22.70;;;;;;5075378;28;20485;-62
2022/04/30 13:03:56;;;;;;;33.53;10.03;;;15.70;23.10;;;;;;5076178;28;21147;-61
2022/04/30 13:06:23;;;;;;;33.60;10.40;;;15.50;23.40;;;;;;5075638;28;20468;-63
2022/04/30 13:14:19;;;;;;;34.50;11.13;;;15.10;24.70;;;;;;5079691;28;20506;-62
2022/04/30 13:16:48;;;;;;;36.17;12.80;;;15.00;25.00;;;;;;5079203;28;20479;-63
2022/04/30 13:19:15;;;;;;;35.77;12.80;;;14.90;25.50;;;;;;5081543;28;20484;-62
2022/04/30 13:21:46;;;;;;;39.23;13.80;;;14.90;26.10;;;;;;5081798;28;20483;-62